Time;durP1;ratioP1;P1;durP2;ratioP2;P2;SDS_P1;SDS_P2;PMS_P1;PMS_P2;Temp;Humidity;BMP_temperature;BMP_pressure;BME280_temperature;BME280_humidity;BME280_pressure;Samples;Min_cycle;Max_cycle;Signal;HPM_P1;HPM_P2
2023/12/20 00:00:22;;;;;;;3.77;2.27;;;;;;;5.44;100.00;101558.06;4955802;29;20031;-88
2023/12/20 00:03:05;;;;;;;4.10;2.20;;;;;;;5.37;100.00;101560.56;4955374;29;20027;-88
2023/12/20 00:05:48;;;;;;;5.13;2.22;;;;;;;5.32;100.00;101567.31;4954665;29;20087;-87
2023/12/20 00:08:16;;;;;;;2.35;2.00;;;;;;;5.25;100.00;101561.19;4997796;23;20060;-88
2023/12/20 00:10:43;;;;;;;1.90;1.70;;;;;;;5.23;100.00;101569.72;4994002;28;20467;-88
2023/12/20 00:13:11;;;;;;;;;;;;;;;5.19;100.00;101578.22;4993943;28;20048;-88
2023/12/20 00:15:36;;;;;;;2.13;1.92;;;;;;;5.14;100.00;101565.25;4993717;28;19917;-88
2023/12/20 00:20:27;;;;;;;1.73;1.50;;;;;;;5.10;100.00;101577.22;4992111;23;20065;-88
2023/12/20 00:22:58;;;;;;;2.13;1.60;;;;;;;5.05;100.00;101568.56;4974421;28;20078;-87
2023/12/20 00:25:24;;;;;;;2.63;1.58;;;;;;;5.02;100.00;101565.03;4974266;28;20046;-88
2023/12/20 00:27:50;;;;;;;3.37;1.67;;;;;;;5.03;100.00;101565.06;4974406;28;20098;-88
2023/12/20 00:30:22;;;;;;;4.27;1.90;;;;;;;5.04;100.00;101566.81;4975022;28;20033;-88
2023/12/20 00:32:57;;;;;;;2.30;1.90;;;;;;;5.03;100.00;101564.19;4974597;28;20046;-88
2023/12/20 00:35:59;;;;;;;5.10;1.85;;;;;;;4.97;100.00;101553.78;4975055;28;20391;-88
2023/12/20 00:38:24;;;;;;;3.08;1.80;;;;;;;4.88;100.00;101539.03;4945958;28;20065;-88
2023/12/20 00:41:11;;;;;;;2.03;1.60;;;;;;;4.93;100.00;101547.72;4974680;28;20026;-88
2023/12/20 00:43:40;;;;;;;1.92;1.40;;;;;;;4.85;100.00;101539.88;4974773;28;20050;-88
2023/12/20 00:46:23;;;;;;;1.55;1.30;;;;;;;4.82;100.00;101534.66;4974526;28;20089;-88
2023/12/20 00:48:57;;;;;;;2.17;1.40;;;;;;;4.78;100.00;101533.72;4974201;28;20089;-88
2023/12/20 00:51:40;;;;;;;1.50;1.40;;;;;;;4.74;100.00;101538.78;4974910;28;20031;-88
2023/12/20 00:54:12;;;;;;;2.25;1.58;;;;;;;4.60;100.00;101529.06;4974531;28;20059;-88
2023/12/20 00:56:40;;;;;;;3.55;1.60;;;;;;;4.57;100.00;101523.00;4974990;28;20101;-88
2023/12/20 00:59:14;;;;;;;2.78;1.75;;;;;;;4.54;100.00;101525.50;4976867;28;20037;-88
2023/12/20 01:01:43;;;;;;;2.97;1.63;;;;;;;4.56;100.00;101536.69;4978108;28;20027;-88
2023/12/20 01:04:14;;;;;;;2.22;1.50;;;;;;;4.54;100.00;101543.50;4978266;28;20031;-88
2023/12/20 01:06:45;;;;;;;2.10;1.45;;;;;;;4.56;100.00;101544.41;4978269;28;20063;-88
2023/12/20 01:09:23;;;;;;;3.33;1.27;;;;;;;4.47;100.00;101532.22;4977628;28;20495;-89
2023/12/20 01:11:48;;;;;;;2.40;1.50;;;;;;;4.53;100.00;101550.38;4978042;28;20463;-88
2023/12/20 01:14:29;;;;;;;2.53;1.50;;;;;;;4.37;100.00;101532.88;4978044;28;20034;-88
2023/12/20 01:17:03;;;;;;;2.30;1.30;;;;;;;4.45;100.00;101555.34;4977767;28;20031;-89
2023/12/20 01:19:30;;;;;;;6.50;1.70;;;;;;;4.47;100.00;101560.50;5007194;23;20050;31
2023/12/20 01:22:10;;;;;;;4.05;1.70;;;;;;;4.35;100.00;101540.56;4956216;29;20143;-87
2023/12/20 01:24:47;;;;;;;3.05;1.70;;;;;;;4.40;100.00;101556.94;4958260;29;20042;-88
2023/12/20 01:27:19;;;;;;;4.13;1.67;;;;;;;4.34;100.00;101541.38;4958523;29;20034;-87
2023/12/20 01:29:50;;;;;;;5.40;1.70;;;;;;;4.43;100.00;101556.16;4958189;29;20026;-89
2023/12/20 01:32:16;;;;;;;3.55;1.75;;;;;;;4.45;100.00;101554.44;4958025;29;20031;-88
2023/12/20 01:34:42;;;;;;;3.42;1.70;;;;;;;4.37;100.00;101544.03;4958299;29;20038;-88
2023/12/20 01:37:07;;;;;;;3.35;1.55;;;;;;;4.43;100.00;101554.44;4958398;29;20091;-89
2023/12/20 01:39:33;;;;;;;5.00;1.70;;;;;;;4.44;100.00;101556.16;4958547;29;20052;-89
2023/12/20 01:42:13;;;;;;;7.43;2.05;;;;;;;4.40;100.00;101554.34;4956829;29;20042;-88
2023/12/20 01:44:57;;;;;;;3.85;1.60;;;;;;;4.43;100.00;101569.00;4958427;29;20112;-89
2023/12/20 01:47:31;;;;;;;1.90;1.40;;;;;;;4.30;100.00;101537.88;4958809;29;20031;-89
2023/12/20 01:50:03;;;;;;;2.63;1.55;;;;;;;4.32;100.00;101540.47;4958018;29;20068;-89
2023/12/20 01:52:29;;;;;;;4.38;1.40;;;;;;;4.37;100.00;101551.75;4938859;29;20034;-89
2023/12/20 01:55:00;;;;;;;5.88;2.00;;;;;;;4.36;100.00;101549.13;4938612;29;20035;-89
2023/12/20 01:57:27;;;;;;;4.20;1.88;;;;;;;4.25;100.00;101533.47;4938223;29;20024;-88
2023/12/20 01:59:52;;;;;;;4.13;1.55;;;;;;;4.28;100.00;101551.50;4938890;29;20035;-89
2023/12/20 02:02:18;;;;;;;3.40;1.50;;;;;;;4.22;100.00;101535.97;4944270;29;20034;-88
2023/12/20 02:05:02;;;;;;;3.70;1.75;;;;;;;4.18;100.00;101533.34;4957866;29;20384;-88
2023/12/20 02:07:34;;;;;;;2.55;1.30;;;;;;;4.17;100.00;101528.16;4958458;29;20031;-88
2023/12/20 02:10:00;;;;;;;2.60;1.70;;;;;;;4.16;100.00;101529.88;4957475;28;20488;-89
2023/12/20 02:12:35;;;;;;;7.00;1.73;;;;;;;4.15;100.00;101537.53;4958041;29;20023;-88
2023/12/20 02:15:01;;;;;;;3.10;1.50;;;;;;;4.16;100.00;101545.31;4957875;29;20038;-89
2023/12/20 02:17:27;;;;;;;4.93;1.70;;;;;;;4.15;100.00;101548.69;4958131;29;20389;-88
2023/12/20 02:20:01;;;;;;;3.65;1.30;;;;;;;4.14;100.00;101534.13;4960190;28;20170;-89
2023/12/20 02:22:32;;;;;;;3.05;1.60;;;;;;;4.07;100.00;101521.94;4977447;28;20081;-88
2023/12/20 02:25:04;;;;;;;2.50;1.90;;;;;;;4.09;100.00;101539.97;4976911;28;20026;-89
2023/12/20 02:27:39;;;;;;;5.63;1.80;;;;;;;4.19;100.00;101552.19;4976536;28;20031;-89
2023/12/20 02:30:05;;;;;;;9.02;2.17;;;;;;;4.15;100.00;101546.13;4976728;28;20022;-89
2023/12/20 02:32:39;;;;;;;8.25;2.33;;;;;;;4.16;100.00;101555.56;4975828;28;20027;-89
2023/12/20 02:35:20;;;;;;;6.25;2.05;;;;;;;4.09;100.00;101545.13;4976186;28;20498;-89
2023/12/20 02:38:00;;;;;;;7.28;2.00;;;;;;;4.04;100.00;101542.44;4976089;28;20049;-89
2023/12/20 02:40:26;;;;;;;5.65;2.15;;;;;;;4.11;100.00;101546.88;4976082;28;20023;-89
2023/12/20 02:42:57;;;;;;;7.07;2.22;;;;;;;4.09;100.00;101548.53;4975787;28;20138;-89
2023/12/20 02:45:37;;;;;;;4.20;1.90;;;;;;;4.15;100.00;101555.53;4975459;28;20480;-89
2023/12/20 02:48:06;;;;;;;2.67;1.80;;;;;;;4.10;100.00;101544.28;4975769;28;20479;-88
2023/12/20 02:50:48;;;;;;;2.42;1.88;;;;;;;4.01;100.00;101522.69;4976040;28;20040;-89
2023/12/20 02:53:20;;;;;;;6.05;2.00;;;;;;;4.13;100.00;101545.22;4975607;28;20023;-88
2023/12/20 02:55:48;;;;;;;6.85;2.00;;;;;;;4.02;100.00;101529.56;4974643;28;20026;-88
2023/12/20 02:58:19;;;;;;;3.30;1.98;;;;;;;4.12;100.00;101540.91;4956917;29;20420;-88
2023/12/20 03:00:51;;;;;;;5.00;1.85;;;;;;;4.20;100.00;101547.91;4956582;29;20380;-88
2023/12/20 03:03:16;;;;;;;6.20;2.13;;;;;;;4.10;100.00;101534.88;4971593;28;20023;-88
2023/12/20 03:05:42;;;;;;;10.38;2.78;;;;;;;4.14;100.00;101540.94;4961516;28;20095;-89
2023/12/20 03:08:13;;;;;;;8.57;2.42;;;;;;;4.23;100.00;101542.84;4956231;29;20062;-90
2023/12/20 03:10:38;;;;;;;5.78;2.15;;;;;;;4.14;100.00;101534.13;4957377;29;20030;-89
2023/12/20 03:13:04;;;;;;;4.35;1.90;;;;;;;4.28;100.00;101546.38;4956975;29;20035;-89
2023/12/20 03:15:29;;;;;;;6.05;2.22;;;;;;;4.19;100.00;101521.38;4968401;28;20037;-89
2023/12/20 03:17:54;;;;;;;8.30;2.40;;;;;;;4.22;100.00;101520.56;4976077;28;20463;-89
2023/12/20 03:20:20;;;;;;;2.97;2.10;;;;;;;4.30;100.00;101526.72;4975463;28;20103;-88
2023/12/20 03:23:27;;;;;;;5.57;2.03;;;;;;;4.23;100.00;101512.88;4975346;28;20026;-88
2023/12/20 03:26:01;;;;;;;5.97;2.10;;;;;;;4.23;100.00;101507.72;4973701;28;20050;-89
2023/12/20 03:28:27;;;;;;;5.10;2.08;;;;;;;4.35;100.00;101526.81;5025814;23;20133;-88
2023/12/20 03:30:53;;;;;;;6.00;2.10;;;;;;;4.30;100.00;101516.44;4976235;28;20031;-88
2023/12/20 03:33:18;;;;;;;7.85;2.47;;;;;;;4.28;100.00;101525.81;4976273;28;20030;-88
2023/12/20 03:35:43;;;;;;;6.13;2.17;;;;;;;4.22;100.00;101510.28;4975223;28;20026;-88
2023/12/20 03:38:09;;;;;;;4.75;2.30;;;;;;;4.22;100.00;101518.88;4975527;28;20181;-88
2023/12/20 03:40:37;;;;;;;3.78;1.98;;;;;;;4.18;100.00;101524.78;4975846;28;20044;-88
2023/12/20 03:43:06;;;;;;;6.32;2.15;;;;;;;4.22;100.00;101528.25;4975218;28;20031;-88
2023/12/20 03:45:41;;;;;;;3.55;1.80;;;;;;;4.20;100.00;101519.66;4971346;28;20027;-88
2023/12/20 03:48:07;;;;;;;2.10;1.80;;;;;;;4.20;100.00;101504.22;4976025;28;20110;-88
2023/12/20 03:50:41;;;;;;;4.45;1.85;;;;;;;4.15;100.00;101502.47;4975026;28;20063;-88
2023/12/20 03:53:10;;;;;;;3.17;1.70;;;;;;;4.26;100.00;101527.50;4975436;28;20101;-88
2023/12/20 03:55:41;;;;;;;7.05;2.13;;;;;;;4.20;100.00;101501.66;4975315;28;20019;-89
2023/12/20 03:58:12;;;;;;;6.72;2.05;;;;;;;4.21;100.00;101500.84;4975824;28;20427;-88
2023/12/20 04:00:37;;;;;;;4.80;2.20;;;;;;;4.32;100.00;101507.97;4975641;28;20019;-88
2023/12/20 04:03:03;;;;;;;5.85;2.00;;;;;;;4.37;100.00;101514.88;4975429;28;20035;-89
2023/12/20 04:05:28;;;;;;;6.55;2.55;;;;;;;4.39;100.00;101513.22;4974859;28;20031;-89
2023/12/20 04:07:53;;;;;;;6.67;2.60;;;;;;;4.39;100.00;101514.06;4975106;28;20038;-88
2023/12/20 04:10:19;;;;;;;7.57;2.47;;;;;;;4.41;100.00;101503.84;4974799;28;20030;-88
2023/12/20 04:12:44;;;;;;;5.53;2.47;;;;;;;4.45;100.00;101509.06;4974980;28;20532;-88
2023/12/20 04:15:10;;;;;;;9.27;2.92;;;;;;;4.46;100.00;101515.94;4975233;28;20042;-88
2023/12/20 04:17:36;;;;;;;6.47;2.50;;;;;;;4.48;100.00;101513.41;4975213;28;20034;-89
2023/12/20 04:20:02;;;;;;;8.43;2.50;;;;;;;4.51;100.00;101525.44;4975333;28;20084;-88
2023/12/20 04:22:39;;;;;;;8.80;2.50;;;;;;;4.54;100.00;101518.69;4975315;28;20023;-88
2023/12/20 04:25:10;;;;;;;5.80;2.40;;;;;;;4.53;100.00;101516.06;4975187;28;20450;-88
2023/12/20 04:28:02;;;;;;;8.02;2.70;;;;;;;4.61;100.00;101524.81;4977478;28;20049;-88
2023/12/20 04:30:28;;;;;;;4.70;2.30;;;;;;;4.61;100.00;101520.53;4994086;28;20038;-87
2023/12/20 04:32:53;;;;;;;6.35;2.50;;;;;;;4.65;100.00;101531.75;4996415;28;20041;-88
2023/12/20 04:35:19;;;;;;;8.73;2.50;;;;;;;4.56;100.00;101506.69;4998723;28;20356;-88
2023/12/20 04:38:06;;;;;;;6.00;2.45;;;;;;;4.62;100.00;101506.84;4998350;28;20030;-88
2023/12/20 04:40:35;;;;;;;7.40;2.30;;;;;;;4.71;100.00;101519.03;4997407;28;20018;-88
2023/12/20 04:43:00;;;;;;;9.15;2.53;;;;;;;4.68;100.00;101508.66;4998447;28;20104;-88
2023/12/20 04:45:40;;;;;;;6.95;2.35;;;;;;;4.68;100.00;101508.66;4998454;28;20037;-89
2023/12/20 04:48:07;;;;;;;4.93;2.03;;;;;;;4.74;100.00;101508.78;4998191;28;20026;-89
2023/12/20 04:50:42;;;;;;;7.35;2.30;;;;;;;4.69;100.00;101496.66;4998393;28;20029;-88
2023/12/20 04:53:13;;;;;;;11.68;2.60;;;;;;;4.78;100.00;101507.16;4997543;28;20018;-89
2023/12/20 04:55:39;;;;;;;7.38;2.53;;;;;;;4.72;100.00;101502.75;4998200;28;20030;-89
2023/12/20 04:58:05;;;;;;;6.80;2.30;;;;;;;4.84;100.00;101532.13;4979787;28;20030;-89
2023/12/20 05:00:31;;;;;;;10.82;2.50;;;;;;;4.76;100.00;101516.53;4998135;28;20022;-89
2023/12/20 05:03:05;;;;;;;9.20;2.63;;;;;;;4.74;100.00;101503.63;4998222;28;20050;-88
2023/12/20 05:05:31;;;;;;;7.57;2.47;;;;;;;4.84;100.00;101511.56;4997970;28;20027;-88
2023/12/20 05:08:03;;;;;;;6.78;2.50;;;;;;;4.83;100.00;101505.53;4997966;28;20034;-89
2023/12/20 05:10:32;;;;;;;6.88;2.40;;;;;;;4.87;100.00;101509.91;4997964;28;20046;-89
2023/12/20 05:12:57;;;;;;;8.82;2.45;;;;;;;4.72;100.00;101482.19;4998045;28;20129;-88
2023/12/20 05:15:32;;;;;;;5.05;2.40;;;;;;;4.78;100.00;101486.59;4997671;28;20352;-89
2023/12/20 05:17:57;;;;;;;9.88;2.80;;;;;;;4.81;100.00;101496.06;4997619;28;20130;-89
2023/12/20 05:20:23;;;;;;;8.48;2.50;;;;;;;4.90;100.00;101506.50;4997609;28;20464;-89
2023/12/20 05:22:58;;;;;;;6.80;2.20;;;;;;;4.79;100.00;101488.28;4997630;28;20023;-89
2023/12/20 05:25:26;;;;;;;10.63;2.65;;;;;;;4.78;100.00;101490.00;4997431;28;20161;-88
2023/12/20 05:27:51;;;;;;;10.02;2.47;;;;;;;4.91;100.00;101513.38;5016489;23;20051;-88
2023/12/20 05:30:17;;;;;;;10.03;2.60;;;;;;;4.89;100.00;101507.34;4978221;28;20403;-90
2023/12/20 05:32:42;;;;;;;11.15;2.72;;;;;;;4.89;100.00;101502.19;4977936;28;20037;-89
2023/12/20 05:35:07;;;;;;;9.45;2.30;;;;;;;4.92;100.00;101507.41;4978118;28;20042;-87
2023/12/20 05:37:33;;;;;;;9.15;2.40;;;;;;;4.92;100.00;101504.84;4977677;28;20023;-88
2023/12/20 05:39:58;;;;;;;8.18;2.42;;;;;;;4.91;100.00;101505.69;4977717;28;20118;-89
2023/12/20 05:42:23;;;;;;;9.35;2.42;;;;;;;4.91;100.00;101500.53;4978168;28;20030;-89
2023/12/20 05:44:49;;;;;;;7.43;2.38;;;;;;;4.87;100.00;101494.47;4977791;28;20037;-89
2023/12/20 05:47:14;;;;;;;9.23;2.50;;;;;;;4.90;100.00;101503.94;4978239;28;20027;-89
2023/12/20 05:49:39;;;;;;;10.80;2.40;;;;;;;4.88;100.00;101503.03;4977923;28;20034;-90
2023/12/20 05:52:07;;;;;;;5.70;2.40;;;;;;;4.86;100.00;101510.72;4977930;28;20026;-89
2023/12/20 05:54:34;;;;;;;6.72;2.20;;;;;;;4.84;100.00;101517.53;4977891;28;20038;-89
2023/12/20 05:57:00;;;;;;;5.28;2.00;;;;;;;4.74;100.00;101518.22;4977871;28;20019;-89
2023/12/20 05:59:25;;;;;;;5.80;2.20;;;;;;;4.72;100.00;101523.34;4978116;28;20035;-89
2023/12/20 06:01:59;;;;;;;4.28;1.80;;;;;;;4.58;100.00;101511.91;4978186;28;20027;-89
2023/12/20 06:04:25;;;;;;;7.00;1.98;;;;;;;4.54;100.00;101516.13;4977293;28;20027;-89
2023/12/20 06:06:59;;;;;;;6.00;2.10;;;;;;;4.47;100.00;101517.69;4977377;28;20441;-89
2023/12/20 06:09:44;;;;;;;9.35;2.50;;;;;;;4.49;100.00;101520.28;4977760;28;20030;-90
2023/12/20 06:12:10;;;;;;;5.93;2.20;;;;;;;4.47;100.00;101519.38;4977443;28;20404;-90
2023/12/20 06:14:38;;;;;;;8.07;2.20;;;;;;;4.50;100.00;101526.31;4977938;28;20022;-89
2023/12/20 06:17:09;;;;;;;5.57;2.30;;;;;;;4.45;100.00;101519.34;4977394;28;20023;-89
2023/12/20 06:19:48;;;;;;;5.88;2.30;;;;;;;4.46;100.00;101512.50;4977127;28;20113;-89
2023/12/20 06:22:28;;;;;;;7.05;2.25;;;;;;;4.52;100.00;101510.06;4977479;28;20114;-89
2023/12/20 06:24:55;;;;;;;9.77;2.30;;;;;;;4.47;100.00;101507.41;4977376;28;20487;-88
2023/12/20 06:27:28;;;;;;;10.10;2.80;;;;;;;4.46;100.00;101504.78;4977279;28;20023;-89
2023/12/20 06:29:57;;;;;;;8.57;2.80;;;;;;;4.57;100.00;101526.44;4996186;28;20073;-89
2023/12/20 06:32:23;;;;;;;9.05;2.50;;;;;;;4.55;100.00;101523.00;4996246;28;20041;-89
2023/12/20 06:35:07;;;;;;;5.50;2.17;;;;;;;4.48;100.00;101515.97;4996425;28;20023;-89
2023/12/20 06:37:32;;;;;;;6.03;2.20;;;;;;;4.41;100.00;101506.41;4996566;28;20037;-89
2023/12/20 06:39:59;;;;;;;7.82;2.65;;;;;;;4.36;100.00;101508.88;4995674;28;20378;-88
2023/12/20 06:42:56;;;;;;;12.75;2.70;;;;;;;4.36;100.00;101502.84;4994727;28;20113;-89
2023/12/20 06:45:45;;;;;;;8.10;2.63;;;;;;;4.35;100.00;101503.69;4994284;28;20043;-89
2023/12/20 06:48:22;;;;;;;9.15;2.72;;;;;;;4.40;100.00;101513.22;4990141;28;20045;-89
2023/12/20 06:51:03;;;;;;;8.43;2.60;;;;;;;4.42;100.00;101521.00;4996071;28;20053;-89
2023/12/20 06:53:44;;;;;;;6.68;2.60;;;;;;;4.41;100.00;101530.38;4996166;28;20032;-89
2023/12/20 06:56:24;;;;;;;4.55;2.30;;;;;;;4.34;100.00;101505.41;4990323;28;20125;-89
2023/12/20 06:59:08;;;;;;;6.40;2.50;;;;;;;4.48;100.00;101529.72;4976580;28;20023;-88
2023/12/20 07:02:05;;;;;;;10.50;3.15;;;;;;;4.47;100.00;101521.94;4986996;28;20026;-88
2023/12/20 07:04:33;;;;;;;10.50;3.70;;;;;;;4.43;100.00;101522.72;4996003;28;20050;-89
2023/12/20 07:07:26;;;;;;;4.57;2.60;;;;;;;4.47;100.00;101521.94;4995733;28;20062;-89
2023/12/20 07:09:52;;;;;;;9.23;3.17;;;;;;;4.38;100.00;101503.75;4996127;28;20030;-86
2023/12/20 07:12:35;;;;;;;7.80;3.22;;;;;;;4.43;100.00;101521.03;4995011;28;20459;-86
2023/12/20 07:15:23;;;;;;;6.13;2.72;;;;;;;4.49;100.00;101528.00;4994116;28;20026;-86
2023/12/20 07:17:59;;;;;;;6.45;2.70;;;;;;;4.34;100.00;101492.56;4994812;28;20027;-86
2023/12/20 07:20:25;;;;;;;9.10;2.88;;;;;;;4.38;100.00;101496.94;4994319;28;20018;-85
2023/12/20 07:22:50;;;;;;;6.97;3.25;;;;;;;4.41;100.00;101498.69;4994656;28;20084;-85
2023/12/20 07:25:21;;;;;;;9.93;3.07;;;;;;;4.51;100.00;101513.47;4994593;28;20026;-86
2023/12/20 07:27:46;;;;;;;8.73;3.28;;;;;;;4.42;100.00;101511.56;4993892;28;20023;-86
2023/12/20 07:30:12;;;;;;;12.35;3.60;;;;;;;4.48;100.00;101522.00;4979931;28;20106;-86
2023/12/20 07:32:37;;;;;;;13.90;3.40;;;;;;;4.45;100.00;101527.06;4975291;28;20396;-86
2023/12/20 07:35:03;;;;;;;11.68;3.60;;;;;;;4.47;100.00;101517.69;4974269;28;20497;-86
2023/12/20 07:37:28;;;;;;;11.13;3.13;;;;;;;4.50;100.00;101519.44;4974993;28;20023;-86
2023/12/20 07:39:53;;;;;;;8.50;3.20;;;;;;;4.47;100.00;101511.66;4974784;28;20041;-86
2023/12/20 07:42:19;;;;;;;7.30;2.83;;;;;;;4.50;100.00;101516.03;4974260;28;20078;-86
2023/12/20 07:44:44;;;;;;;8.77;2.83;;;;;;;4.51;100.00;101513.47;4974497;28;20109;-86
2023/12/20 07:47:09;;;;;;;8.98;3.00;;;;;;;4.53;100.00;101511.81;4974363;28;20029;-86
2023/12/20 07:49:34;;;;;;;11.35;3.00;;;;;;;4.55;100.00;101515.28;4974081;28;20022;-89
2023/12/20 07:52:00;;;;;;;11.07;3.45;;;;;;;4.54;100.00;101513.53;4975576;28;20034;-92
2023/12/20 07:54:35;;;;;;;7.23;2.80;;;;;;;4.57;100.00;101513.59;4975644;28;20468;-91
2023/12/20 07:57:00;;;;;;;11.32;3.25;;;;;;;4.56;100.00;101505.84;4981012;28;20049;-89
2023/12/20 07:59:26;;;;;;;11.57;3.13;;;;;;;4.58;100.00;101512.75;4994587;28;20463;-88
2023/12/20 08:01:51;;;;;;;13.95;3.40;;;;;;;4.60;100.00;101516.22;4994589;28;20060;-87
2023/12/20 08:04:17;;;;;;;12.80;3.72;;;;;;;4.64;100.00;101522.28;4993672;28;20124;-91
2023/12/20 08:06:42;;;;;;;10.67;3.33;;;;;;;4.64;100.00;101524.84;4994701;28;20023;-87
2023/12/20 08:09:07;;;;;;;12.82;3.53;;;;;;;4.66;100.00;101525.75;4995236;28;20019;-90
2023/12/20 08:11:32;;;;;;;11.02;3.42;;;;;;;4.66;100.00;101522.34;4994944;28;20109;-90
2023/12/20 08:13:58;;;;;;;13.73;3.30;;;;;;;4.68;100.00;101524.09;4994671;28;20104;-76
2023/12/20 08:16:23;;;;;;;9.50;3.47;;;;;;;4.70;100.00;101516.41;4994001;28;20022;-89
2023/12/20 08:18:49;;;;;;;11.27;3.30;;;;;;;4.72;100.00;101509.59;4994872;28;20034;-90
2023/12/20 08:21:14;;;;;;;11.43;3.40;;;;;;;4.74;100.00;101521.63;4995449;28;20101;-87
2023/12/20 08:23:42;;;;;;;11.32;3.20;;;;;;;4.76;100.00;101529.41;4995932;28;20030;-94
2023/12/20 08:26:08;;;;;;;7.10;2.60;;;;;;;4.79;100.00;101538.03;4995379;28;20030;-94
2023/12/20 08:28:33;;;;;;;12.10;3.08;;;;;;;4.73;100.00;101526.75;4996224;28;20054;-92
2023/12/20 08:30:59;;;;;;;9.07;2.60;;;;;;;4.82;100.00;101541.50;4995176;28;20150;-91
2023/12/20 08:33:24;;;;;;;7.47;2.80;;;;;;;4.86;100.00;101541.59;4995276;28;20101;-92
2023/12/20 08:35:50;;;;;;;9.50;2.72;;;;;;;4.90;100.00;101539.94;4995291;28;20106;-90
2023/12/20 08:38:19;;;;;;;7.93;2.75;;;;;;;4.91;100.00;101541.69;4994958;28;20023;-90
2023/12/20 08:40:44;;;;;;;10.38;3.03;;;;;;;4.89;100.00;101528.81;4995283;28;20101;-92
2023/12/20 08:43:10;;;;;;;12.80;2.92;;;;;;;4.95;100.00;101544.34;4994276;28;20050;-88
2023/12/20 08:45:36;;;;;;;9.63;2.88;;;;;;;4.97;100.00;101538.38;4992835;28;20026;-89
2023/12/20 08:48:04;;;;;;;8.13;2.90;;;;;;;4.97;100.00;101531.50;4994472;28;20033;-89
2023/12/20 08:50:29;;;;;;;9.98;3.10;;;;;;;4.95;100.00;101515.19;4994210;28;20030;-85
2023/12/20 08:52:55;;;;;;;11.55;2.92;;;;;;;5.03;100.00;101521.34;4992587;28;20029;-89
2023/12/20 08:55:20;;;;;;;10.82;3.20;;;;;;;5.06;100.00;101510.22;4993931;28;20060;-93
2023/12/20 08:57:46;;;;;;;6.83;2.77;;;;;;;5.08;100.00;101511.97;4976997;28;20035;-91
2023/12/20 09:00:11;;;;;;;12.65;3.22;;;;;;;5.06;100.00;101505.09;4975427;28;20027;-93
2023/12/20 09:02:37;;;;;;;11.25;3.17;;;;;;;5.08;100.00;101501.69;4977798;28;20039;-88
2023/12/20 09:05:03;;;;;;;16.35;3.38;;;;;;;5.12;100.00;101509.47;4974699;28;20086;-91
2023/12/20 09:07:30;;;;;;;13.25;3.47;;;;;;;5.17;100.00;101495.00;4977610;28;20022;-94
2023/12/20 09:09:55;;;;;;;;;;;;;;;5.17;100.00;101508.72;4978776;28;20077;-94
2023/12/20 09:12:21;;;;;;;13.33;3.40;;;;;;;5.15;100.00;101517.25;4977443;28;19914;-92
2023/12/20 09:14:48;;;;;;;12.10;3.20;;;;;;;5.15;100.00;101510.38;4979927;28;20031;-94
2023/12/20 09:17:13;;;;;;;13.35;3.92;;;;;;;5.10;100.00;101506.88;4979849;28;20034;-93
2023/12/20 09:19:45;;;;;;;10.68;3.17;;;;;;;5.15;100.00;101506.97;4976078;28;20018;-93
2023/12/20 09:22:13;;;;;;;10.63;3.60;;;;;;;5.14;100.00;101506.06;4990620;28;20029;-90
2023/12/20 09:24:50;;;;;;;9.63;3.20;;;;;;;5.06;100.00;101502.50;4979861;28;20118;-95
2023/12/20 09:27:16;;;;;;;10.35;2.88;;;;;;;5.16;100.00;101514.69;5008598;23;20042;-92
2023/12/20 09:29:53;;;;;;;10.93;3.23;;;;;;;5.11;100.00;101495.75;4997716;28;20026;-93
2023/12/20 09:32:35;;;;;;;13.45;3.75;;;;;;;5.19;100.00;101512.19;4998042;28;20015;-92
2023/12/20 09:35:08;;;;;;;14.52;3.63;;;;;;;5.23;100.00;101524.28;4998369;28;20105;-89
2023/12/20 09:37:52;;;;;;;14.70;3.60;;;;;;;5.12;100.00;101496.59;5001378;28;20148;-95
2023/12/20 09:40:34;;;;;;;10.68;2.90;;;;;;;5.17;100.00;101495.84;5011865;28;20112;-94
2023/12/20 09:43:29;;;;;;;11.90;3.70;;;;;;;5.17;100.00;101493.28;5019056;28;20017;-94
2023/12/20 09:46:02;;;;;;;12.63;3.08;;;;;;;5.16;100.00;101494.13;5013625;28;20061;-95
2023/12/20 09:48:33;;;;;;;12.20;3.63;;;;;;;5.19;100.00;101495.88;4998545;28;20101;-93
2023/12/20 09:51:11;;;;;;;9.43;3.00;;;;;;;5.23;100.00;101503.69;4997894;28;20423;-91
2023/12/20 09:53:41;;;;;;;9.50;2.90;;;;;;;5.30;100.00;101517.50;4998178;28;20487;-94
2023/12/20 09:56:06;;;;;;;6.55;2.60;;;;;;;5.24;100.00;101489.97;5012574;28;20026;-93
2023/12/20 09:58:43;;;;;;;7.27;2.70;;;;;;;5.30;100.00;101501.22;4997452;28;20047;-94
2023/12/20 10:01:09;;;;;;;13.02;2.95;;;;;;;5.40;100.00;101510.81;4997437;28;20026;-93
2023/12/20 10:03:40;;;;;;;12.57;2.80;;;;;;;5.35;100.00;101492.72;5004686;28;20030;-91
2023/12/20 10:06:45;;;;;;;14.13;3.55;;;;;;;5.34;100.00;101492.72;5004624;28;20038;-89
2023/12/20 10:09:45;;;;;;;12.02;3.53;;;;;;;5.51;100.00;101517.00;4934381;29;20612;-89
2023/12/20 10:12:16;;;;;;;13.95;3.33;;;;;;;5.49;100.00;101495.53;4936624;29;20059;-91
2023/12/20 10:15:11;;;;;;;12.88;3.20;;;;;;;5.46;100.00;101482.59;4935175;29;20059;-89
2023/12/20 10:17:38;;;;;;;14.23;3.10;;;;;;;5.58;100.00;101492.22;4936051;29;20066;-90
2023/12/20 10:20:12;;;;;;;12.25;3.20;;;;;;;5.52;100.00;101472.41;4996269;28;20034;-89
2023/12/20 10:26:08;;;;;;;15.23;3.20;;;;;;;5.63;100.00;101484.56;4989137;28;20061;-90
2023/12/20 10:36:22;;;;;;;13.50;2.90;;;;;;;5.86;100.00;101513.25;5281312;23;20534;-90
2023/12/20 10:39:57;;;;;;;;;;;;;;;;;;;;;
2023/12/20 10:43:15;;;;;;;10.90;2.72;;;;;;;5.88;100.00;101499.56;4956187;29;20507;-95
2023/12/20 10:46:07;;;;;;;12.73;3.33;;;;;;;5.92;100.00;101500.47;4957398;29;20049;-93
2023/12/20 10:48:39;;;;;;;11.30;2.90;;;;;;;5.88;100.00;101491.84;4956353;29;20217;-93
2023/12/20 10:51:36;;;;;;;11.05;2.70;;;;;;;5.95;100.00;101484.19;4956295;29;20043;-93
2023/12/20 10:57:30;;;;;;;15.57;3.50;;;;;;;5.93;100.00;101462.69;5037709;23;20061;-92
2023/12/20 11:00:00;;;;;;;11.27;2.87;;;;;;;5.92;100.00;101461.81;4997529;28;20026;-91
2023/12/20 11:02:27;;;;;;;14.32;3.03;;;;;;;5.91;100.00;101460.09;4997511;28;20022;-93
2023/12/20 11:04:52;;;;;;;15.93;3.40;;;;;;;5.92;100.00;101461.81;5010972;28;20060;-94
2023/12/20 11:07:21;;;;;;;12.27;2.90;;;;;;;5.93;100.00;101462.69;5017011;28;20029;-94
2023/12/20 11:09:59;;;;;;;10.82;2.88;;;;;;;5.97;100.00;101465.31;5018055;28;20026;-94
2023/12/20 11:12:38;;;;;;;11.35;2.95;;;;;;;5.99;100.00;101449.91;5016737;28;20022;-93
2023/12/20 11:15:04;;;;;;;12.63;2.90;;;;;;;5.98;100.00;101463.63;5016846;28;20022;-94
2023/12/20 11:17:31;;;;;;;12.80;3.22;;;;;;;6.01;100.00;101456.81;5016603;28;20030;-93
2023/12/20 11:19:56;;;;;;;11.00;2.83;;;;;;;6.02;100.00;101465.44;5016045;28;20030;-95
2023/12/20 11:22:25;;;;;;;12.67;2.90;;;;;;;6.03;100.00;101460.28;5018624;28;20029;-96
2023/12/20 11:24:58;;;;;;;10.70;2.78;;;;;;;6.03;100.00;101462.88;5021146;28;20094;-94
2023/12/20 11:27:34;;;;;;;11.10;3.00;;;;;;;6.05;100.00;101462.03;5020014;28;20029;-94
2023/12/20 11:30:02;;;;;;;;;;;;;;;6.07;100.00;101453.47;5012157;28;20106;-96
2023/12/20 11:32:37;;;;;;;9.63;2.75;;;;;;;5.98;100.00;101443.88;5000803;28;19914;-95
2023/12/20 11:35:14;;;;;;;10.85;2.80;;;;;;;6.03;100.00;101442.25;5005305;28;20040;-95
2023/12/20 11:37:43;;;;;;;8.82;2.70;;;;;;;5.99;100.00;101424.13;4998433;28;20037;-95
2023/12/20 11:40:15;;;;;;;10.60;2.92;;;;;;;5.87;100.00;101425.69;5004336;28;20022;-96
2023/12/20 11:42:45;;;;;;;5.80;2.30;;;;;;;5.95;100.00;101424.94;5003912;28;20057;-94
2023/12/20 11:45:19;;;;;;;9.75;2.55;;;;;;;5.89;100.00;101420.56;5008408;28;20030;-95
2023/12/20 11:47:51;;;;;;;6.28;2.38;;;;;;;5.91;100.00;101412.88;5004670;28;20064;-94
2023/12/20 11:50:17;;;;;;;12.35;3.00;;;;;;;5.95;100.00;101423.22;5003877;28;20047;-96
2023/12/20 11:53:01;;;;;;;12.23;2.60;;;;;;;6.05;100.00;101431.09;5011198;28;20023;-96
2023/12/20 11:55:26;;;;;;;7.55;2.20;;;;;;;5.98;100.00;101412.94;5012252;28;20017;-96
2023/12/20 11:57:52;;;;;;;5.10;2.07;;;;;;;5.96;100.00;101409.50;5011409;28;20050;-96
2023/12/20 12:00:21;;;;;;;6.13;2.17;;;;;;;6.03;100.00;101425.91;4994685;28;20026;-96